Time;durP1;ratioP1;P1;durP2;ratioP2;P2;SDS_P1;SDS_P2;PMS_P1;PMS_P2;Temp;Humidity;BMP_temperature;BMP_pressure;BME280_temperature;BME280_humidity;BME280_pressure;Samples;Min_cycle;Max_cycle;Signal;HPM_P1;HPM_P2
2023/06/07 00:00:44;;;;;;;9.98;2.47;;;;;;;;;;4990411;28;20582;-66
2023/06/07 00:03:11;;;;;;;7.25;2.33;;;;;;;;;;5003397;28;20074;-67
2023/06/07 00:05:38;;;;;;;8.88;2.33;;;;;;;;;;4991412;28;20491;-67
2023/06/07 00:08:07;;;;;;;8.95;2.15;;;;;;;;;;4991527;28;20034;-67
2023/06/07 00:10:33;;;;;;;7.78;2.20;;;;;;;;;;4981924;28;20080;-66
2023/06/07 00:13:00;;;;;;;7.35;2.13;;;;;;;;;;4981038;28;20038;-66
2023/06/07 00:15:27;;;;;;;6.20;1.80;;;;;;;;;;4990156;28;20034;-69
2023/06/07 00:17:54;;;;;;;6.65;2.00;;;;;;;;;;5002424;28;20046;-66
2023/06/07 00:20:20;;;;;;;8.10;2.40;;;;;;;;;;4990996;28;20601;-67
2023/06/07 00:22:47;;;;;;;4.47;2.03;;;;;;;;;;5013608;28;20042;-66
2023/06/07 00:25:14;;;;;;;6.20;2.10;;;;;;;;;;5014706;28;20072;-66
2023/06/07 00:27:40;;;;;;;7.35;2.35;;;;;;;;;;5013937;28;20510;-66
2023/06/07 00:30:07;;;;;;;8.25;2.30;;;;;;;;;;5028310;28;20037;-67
2023/06/07 00:32:34;;;;;;;8.38;2.28;;;;;;;;;;5013692;28;20053;-66
2023/06/07 00:35:01;;;;;;;6.05;2.20;;;;;;;;;;5013162;28;20149;-66
2023/06/07 00:37:27;;;;;;;6.55;2.42;;;;;;;;;;5013598;28;20053;-66
2023/06/07 00:39:54;;;;;;;11.07;2.40;;;;;;;;;;5014743;28;20046;-66
2023/06/07 00:42:20;;;;;;;8.55;2.60;;;;;;;;;;5013537;28;20393;-66
2023/06/07 00:44:47;;;;;;;8.10;2.80;;;;;;;;;;5015086;28;20037;-66
2023/06/07 00:47:14;;;;;;;5.65;2.65;;;;;;;;;;5015985;28;20042;-70
2023/06/07 00:49:41;;;;;;;22.05;3.63;;;;;;;;;;5007565;28;20034;-65
2023/06/07 00:52:08;;;;;;;6.03;3.13;;;;;;;;;;4995373;28;20044;-66
2023/06/07 00:54:34;;;;;;;6.53;2.83;;;;;;;;;;4992510;28;20821;-64
2023/06/07 00:57:01;;;;;;;10.57;3.08;;;;;;;;;;4994803;28;20049;-65
2023/06/07 00:59:28;;;;;;;9.23;2.90;;;;;;;;;;4992663;28;20053;-66
2023/06/07 01:01:55;;;;;;;6.70;3.17;;;;;;;;;;4994403;28;20038;-64
2023/06/07 01:04:24;;;;;;;8.05;3.08;;;;;;;;;;4993013;28;20133;-66
2023/06/07 01:06:52;;;;;;;9.98;3.10;;;;;;;;;;4996507;28;20040;-65
2023/06/07 01:09:20;;;;;;;5.57;2.80;;;;;;;;;;4993793;28;20124;-66
2023/06/07 01:11:49;;;;;;;6.47;3.17;;;;;;;;;;5015608;28;20040;-66
2023/06/07 01:14:16;;;;;;;9.73;3.55;;;;;;;;;;5016851;28;20034;-65
2023/06/07 01:16:48;;;;;;;16.27;4.13;;;;;;;;;;5014251;28;20478;-65
2023/06/07 01:19:18;;;;;;;9.02;3.90;;;;;;;;;;5015747;28;20052;-69
2023/06/07 01:22:05;;;;;;;10.82;3.67;;;;;;;;;;5007658;28;20038;-65
2023/06/07 01:24:35;;;;;;;7.95;3.15;;;;;;;;;;5007529;28;20100;-65
2023/06/07 01:27:03;;;;;;;8.07;3.72;;;;;;;;;;5009414;28;20041;-65
2023/06/07 01:29:31;;;;;;;8.85;3.75;;;;;;;;;;5006905;28;20122;-65
2023/06/07 01:31:58;;;;;;;7.65;3.17;;;;;;;;;;5011022;28;20029;-67
2023/06/07 01:34:25;;;;;;;8.25;3.47;;;;;;;;;;5011048;28;20100;-66
2023/06/07 01:36:54;;;;;;;6.05;3.42;;;;;;;;;;5011039;28;20042;-67
2023/06/07 01:39:21;;;;;;;7.43;3.60;;;;;;;;;;5008637;28;20107;-67
2023/06/07 01:41:50;;;;;;;7.50;3.88;;;;;;;;;;5009359;28;20067;-67
2023/06/07 01:44:17;;;;;;;9.73;4.10;;;;;;;;;;5008182;28;20053;-67
2023/06/07 01:46:44;;;;;;;7.78;3.55;;;;;;;;;;5015772;28;20092;-68
2023/06/07 01:49:10;;;;;;;11.00;3.80;;;;;;;;;;5021601;28;20034;-66
2023/06/07 01:51:37;;;;;;;7.30;3.60;;;;;;;;;;5015295;28;20092;-66
2023/06/07 01:54:04;;;;;;;8.75;3.65;;;;;;;;;;5021411;28;20519;-66
2023/06/07 01:56:41;;;;;;;8.20;3.78;;;;;;;;;;5017220;28;20064;-66
2023/06/07 01:59:17;;;;;;;9.57;3.80;;;;;;;;;;5021738;28;20141;-69
2023/06/07 02:02:05;;;;;;;8.70;4.10;;;;;;;;;;5023096;28;20044;-66
2023/06/07 02:04:32;;;;;;;7.05;3.67;;;;;;;;;;5017807;28;20449;-67
2023/06/07 02:07:05;;;;;;;6.97;3.60;;;;;;;;;;4998545;28;20495;-67
2023/06/07 02:09:36;;;;;;;7.32;3.45;;;;;;;;;;4994562;28;20044;-66
2023/06/07 02:12:06;;;;;;;6.95;3.60;;;;;;;;;;4996173;28;20049;-67
2023/06/07 02:14:33;;;;;;;8.77;3.83;;;;;;;;;;5001928;28;20125;-66
2023/06/07 02:16:59;;;;;;;6.05;3.50;;;;;;;;;;4992336;28;20039;-66
2023/06/07 02:19:26;;;;;;;7.18;3.75;;;;;;;;;;4991012;28;20046;-63
2023/06/07 02:21:53;;;;;;;15.43;3.88;;;;;;;;;;4994130;28;20053;-63
2023/06/07 02:24:19;;;;;;;10.70;3.88;;;;;;;;;;4992036;28;20068;-64
2023/06/07 02:26:46;;;;;;;8.13;4.05;;;;;;;;;;4992755;28;20766;-61
2023/06/07 02:29:13;;;;;;;7.72;3.55;;;;;;;;;;4993269;28;20034;-67
2023/06/07 02:31:40;;;;;;;9.30;3.90;;;;;;;;;;4992622;28;20110;-63
2023/06/07 02:34:09;;;;;;;9.35;4.25;;;;;;;;;;4993769;28;20886;-64
2023/06/07 02:36:39;;;;;;;7.80;4.10;;;;;;;;;;4992664;28;20049;-64
2023/06/07 02:39:09;;;;;;;7.70;3.63;;;;;;;;;;4991752;28;20394;-64
2023/06/07 02:41:36;;;;;;;7.97;3.90;;;;;;;;;;4991070;28;20160;-60
2023/06/07 02:44:02;;;;;;;9.07;3.85;;;;;;;;;;4993433;28;20045;-64
2023/06/07 02:46:29;;;;;;;8.98;3.72;;;;;;;;;;4990575;28;20404;-62
2023/06/07 02:48:56;;;;;;;7.00;3.17;;;;;;;;;;4992719;28;20040;-62
2023/06/07 02:51:43;;;;;;;6.75;3.05;;;;;;;;;;4984131;28;20054;-63
2023/06/07 02:54:10;;;;;;;7.13;3.47;;;;;;;;;;4984495;28;20126;-64
2023/06/07 02:56:37;;;;;;;7.15;3.50;;;;;;;;;;4985018;28;20042;-63
2023/06/07 02:59:04;;;;;;;7.03;3.47;;;;;;;;;;4988341;28;20511;-64
2023/06/07 03:01:33;;;;;;;7.15;3.30;;;;;;;;;;4995116;28;20034;-64
2023/06/07 03:04:18;;;;;;;7.07;3.03;;;;;;;;;;4985329;28;20050;-62
2023/06/07 03:06:46;;;;;;;7.57;3.70;;;;;;;;;;4978489;28;20053;-63
2023/06/07 03:09:15;;;;;;;7.15;3.42;;;;;;;;;;4975722;28;20093;-62
2023/06/07 03:11:42;;;;;;;8.05;3.47;;;;;;;;;;4973883;28;20050;-62
2023/06/07 03:14:08;;;;;;;6.93;3.92;;;;;;;;;;4971462;28;20050;-64
2023/06/07 03:16:35;;;;;;;8.18;3.45;;;;;;;;;;4970350;28;20109;-64
2023/06/07 03:19:02;;;;;;;7.47;3.67;;;;;;;;;;4969342;28;20991;-61
2023/06/07 03:21:28;;;;;;;7.85;3.63;;;;;;;;;;4968705;28;20538;-61
2023/06/07 03:23:55;;;;;;;8.27;3.55;;;;;;;;;;4980518;28;20076;-64
2023/06/07 03:26:22;;;;;;;8.98;3.75;;;;;;;;;;4982330;28;20045;-66
2023/06/07 03:28:49;;;;;;;13.57;4.20;;;;;;;;;;4980682;28;20038;-64
2023/06/07 03:31:16;;;;;;;6.22;3.40;;;;;;;;;;4979924;28;20125;-64
2023/06/07 03:33:43;;;;;;;8.00;3.45;;;;;;;;;;4980907;28;20474;-63
2023/06/07 03:36:11;;;;;;;6.10;3.38;;;;;;;;;;4993379;28;20115;-65
2023/06/07 03:38:38;;;;;;;8.95;3.47;;;;;;;;;;5018004;28;20057;-64
2023/06/07 03:41:05;;;;;;;9.38;3.13;;;;;;;;;;5017327;28;20038;-63
2023/06/07 03:43:31;;;;;;;10.90;3.42;;;;;;;;;;5004357;28;20049;-66
2023/06/07 03:45:58;;;;;;;9.30;4.70;;;;;;;;;;5008891;28;20069;-64
2023/06/07 03:48:24;;;;;;;10.50;3.28;;;;;;;;;;4988056;28;20141;-64
2023/06/07 03:50:51;;;;;;;7.63;3.22;;;;;;;;;;4986131;28;20046;-61
2023/06/07 03:53:18;;;;;;;7.57;3.03;;;;;;;;;;4985716;28;20042;-61
2023/06/07 03:55:44;;;;;;;6.80;3.47;;;;;;;;;;4982662;28;20139;-64
2023/06/07 03:58:12;;;;;;;9.32;3.30;;;;;;;;;;4993858;28;21024;-60
2023/06/07 04:00:38;;;;;;;24.55;4.70;;;;;;;;;;4981983;28;20098;-59
2023/06/07 04:03:05;;;;;;;14.35;3.63;;;;;;;;;;4982720;28;20046;-63
2023/06/07 04:05:38;;;;;;;8.63;4.43;;;;;;;;;;4982002;28;20039;-63
2023/06/07 04:08:06;;;;;;;8.18;3.38;;;;;;;;;;4983655;28;21455;-62
2023/06/07 04:10:33;;;;;;;9.80;3.10;;;;;;;;;;4978035;28;20056;-62
2023/06/07 04:12:59;;;;;;;7.32;3.08;;;;;;;;;;4980157;28;20062;-64
2023/06/07 04:15:26;;;;;;;10.00;3.75;;;;;;;;;;4979558;28;20372;-62
2023/06/07 04:17:52;;;;;;;11.55;3.28;;;;;;;;;;4994198;28;20589;-62
2023/06/07 04:20:19;;;;;;;8.18;3.10;;;;;;;;;;4981414;28;20042;-63
2023/06/07 04:22:46;;;;;;;9.07;3.22;;;;;;;;;;4980658;28;20031;-63
2023/06/07 04:25:16;;;;;;;9.18;3.08;;;;;;;;;;4981161;28;20128;-61
2023/06/07 04:27:46;;;;;;;10.70;3.20;;;;;;;;;;4979239;28;20046;-62
2023/06/07 04:30:14;;;;;;;6.50;3.15;;;;;;;;;;4980703;28;20143;-63
2023/06/07 04:32:41;;;;;;;10.85;3.67;;;;;;;;;;4989374;28;20124;-65
2023/06/07 04:35:07;;;;;;;6.22;2.80;;;;;;;;;;4978973;28;20149;-65
2023/06/07 04:37:34;;;;;;;6.22;2.90;;;;;;;;;;4990217;28;20041;-63
2023/06/07 04:40:01;;;;;;;6.78;3.10;;;;;;;;;;4978590;28;20124;-65
2023/06/07 04:42:27;;;;;;;6.72;2.83;;;;;;;;;;4980446;28;20038;-66
2023/06/07 04:44:54;;;;;;;7.13;3.33;;;;;;;;;;4980011;28;20204;-65
2023/06/07 04:47:20;;;;;;;11.82;3.45;;;;;;;;;;4981335;28;20080;-63
2023/06/07 04:49:51;;;;;;;13.00;3.42;;;;;;;;;;4978845;28;21026;-64
2023/06/07 04:52:20;;;;;;;6.80;3.00;;;;;;;;;;4979263;28;20316;-65
2023/06/07 04:54:46;;;;;;;7.15;3.13;;;;;;;;;;4980312;28;20427;-64
2023/06/07 04:57:33;;;;;;;8.65;3.75;;;;;;;;;;4981313;28;20618;-64
2023/06/07 04:59:59;;;;;;;6.72;3.42;;;;;;;;;;4979052;28;20050;-64
2023/06/07 05:02:26;;;;;;;6.30;3.30;;;;;;;;;;4964257;28;20061;-64
2023/06/07 05:04:53;;;;;;;10.88;3.70;;;;;;;;;;4963327;28;20164;-64
2023/06/07 05:07:19;;;;;;;7.88;3.20;;;;;;;;;;4984321;28;20405;-65
2023/06/07 05:09:46;;;;;;;7.85;3.90;;;;;;;;;;4984842;28;20069;-63
2023/06/07 05:12:13;;;;;;;8.77;3.35;;;;;;;;;;4985975;28;20036;-62
2023/06/07 05:14:40;;;;;;;8.95;3.45;;;;;;;;;;4978984;28;20046;-63
2023/06/07 05:17:07;;;;;;;9.23;3.50;;;;;;;;;;4985689;28;20055;-64
2023/06/07 05:19:34;;;;;;;7.45;3.33;;;;;;;;;;4982529;28;20058;-65
2023/06/07 05:22:00;;;;;;;8.07;3.50;;;;;;;;;;4985296;28;20030;-65
2023/06/07 05:24:27;;;;;;;10.18;3.60;;;;;;;;;;4983029;28;20050;-64
2023/06/07 05:26:54;;;;;;;6.32;3.38;;;;;;;;;;4985935;28;20047;-64
2023/06/07 05:29:20;;;;;;;8.10;3.65;;;;;;;;;;4981097;28;20034;-65
2023/06/07 05:31:47;;;;;;;6.93;3.55;;;;;;;;;;4983379;28;20076;-64
2023/06/07 05:34:13;;;;;;;7.93;3.33;;;;;;;;;;4981877;28;20121;-65
2023/06/07 05:36:40;;;;;;;7.40;3.25;;;;;;;;;;4994285;28;20525;-65
2023/06/07 05:39:07;;;;;;;9.32;4.05;;;;;;;;;;4984549;28;20061;-65
2023/06/07 05:41:33;;;;;;;9.05;3.60;;;;;;;;;;4983853;28;20088;-63
2023/06/07 05:44:00;;;;;;;9.88;3.53;;;;;;;;;;4983522;28;20050;-64
2023/06/07 05:46:26;;;;;;;9.07;3.40;;;;;;;;;;4995182;28;20035;-64
2023/06/07 05:48:53;;;;;;;7.15;3.47;;;;;;;;;;4995357;28;20595;-65
2023/06/07 05:51:20;;;;;;;7.30;3.55;;;;;;;;;;4984157;28;20042;-67
2023/06/07 05:53:46;;;;;;;11.63;3.67;;;;;;;;;;4995229;28;20951;-64
2023/06/07 05:56:16;;;;;;;7.80;3.50;;;;;;;;;;4981958;28;20050;-64
2023/06/07 05:58:44;;;;;;;11.43;3.53;;;;;;;;;;4982012;28;20055;-69
2023/06/07 06:01:13;;;;;;;8.35;3.60;;;;;;;;;;4981843;28;20045;-64
2023/06/07 06:03:39;;;;;;;6.68;3.60;;;;;;;;;;4984461;28;20473;-64
2023/06/07 06:06:14;;;;;;;7.57;3.47;;;;;;;;;;4983925;28;20053;-65
2023/06/07 06:08:40;;;;;;;7.63;3.50;;;;;;;;;;4980756;28;20140;-65
2023/06/07 06:11:07;;;;;;;10.73;3.60;;;;;;;;;;4983354;28;20042;-64
2023/06/07 06:13:34;;;;;;;6.95;3.45;;;;;;;;;;4981166;28;20519;-63
2023/06/07 06:16:00;;;;;;;8.55;3.63;;;;;;;;;;4996307;28;20077;-64
2023/06/07 06:18:27;;;;;;;7.75;3.47;;;;;;;;;;4985180;28;20068;-64
2023/06/07 06:20:53;;;;;;;8.02;3.50;;;;;;;;;;4983227;28;20525;-62
2023/06/07 06:23:20;;;;;;;7.68;3.78;;;;;;;;;;4982862;28;20042;-63
2023/06/07 06:25:47;;;;;;;11.45;3.70;;;;;;;;;;4983504;28;20414;-62
2023/06/07 06:28:14;;;;;;;11.57;3.80;;;;;;;;;;4981715;28;20099;-63
2023/06/07 06:30:40;;;;;;;12.80;3.72;;;;;;;;;;4981345;28;20085;-63
2023/06/07 06:33:07;;;;;;;7.35;3.70;;;;;;;;;;4984832;28;20062;-66
2023/06/07 06:35:33;;;;;;;7.97;3.67;;;;;;;;;;4994318;28;20050;-62
2023/06/07 06:38:00;;;;;;;8.75;3.88;;;;;;;;;;4983660;28;20029;-63
2023/06/07 06:40:27;;;;;;;10.43;4.15;;;;;;;;;;4981908;28;20045;-64
2023/06/07 06:42:54;;;;;;;10.30;3.58;;;;;;;;;;4985364;28;20042;-62
2023/06/07 06:45:21;;;;;;;8.55;4.00;;;;;;;;;;4985066;28;20041;-63
2023/06/07 06:47:47;;;;;;;8.25;3.90;;;;;;;;;;4982509;28;20042;-62
2023/06/07 06:50:14;;;;;;;12.95;4.32;;;;;;;;;;4982192;28;20077;-62
2023/06/07 06:52:44;;;;;;;13.35;4.10;;;;;;;;;;4986258;28;20097;-62
2023/06/07 06:55:10;;;;;;;10.95;4.10;;;;;;;;;;4982728;28;20136;-63
2023/06/07 06:57:37;;;;;;;11.60;3.95;;;;;;;;;;4983694;28;20293;-64
2023/06/07 07:00:06;;;;;;;8.32;4.15;;;;;;;;;;4984080;28;20042;-62
2023/06/07 07:02:33;;;;;;;8.57;3.70;;;;;;;;;;4987301;28;20170;-63
2023/06/07 07:05:01;;;;;;;9.73;4.18;;;;;;;;;;5004042;28;20041;-63
2023/06/07 07:07:27;;;;;;;13.50;4.40;;;;;;;;;;5002632;28;20528;-63
2023/06/07 07:09:54;;;;;;;9.52;4.60;;;;;;;;;;5004611;28;20103;-63
2023/06/07 07:12:24;;;;;;;7.68;4.45;;;;;;;;;;5004249;28;20061;-64
2023/06/07 07:14:50;;;;;;;12.48;4.68;;;;;;;;;;5001391;28;20771;-64
2023/06/07 07:17:17;;;;;;;12.40;4.47;;;;;;;;;;5005286;28;20486;-61
2023/06/07 07:19:44;;;;;;;9.15;4.72;;;;;;;;;;5003760;28;20041;-64
2023/06/07 07:22:11;;;;;;;10.20;4.75;;;;;;;;;;5003148;28;20056;-61
2023/06/07 07:24:37;;;;;;;8.23;4.38;;;;;;;;;;5000057;28;20503;-61
2023/06/07 07:27:06;;;;;;;9.43;4.43;;;;;;;;;;5001207;28;20060;-63
2023/06/07 07:29:33;;;;;;;10.35;4.32;;;;;;;;;;5000704;28;20045;-63
2023/06/07 07:32:00;;;;;;;10.23;4.65;;;;;;;;;;5002862;28;20050;-64
2023/06/07 07:34:26;;;;;;;12.77;4.68;;;;;;;;;;5001514;28;20042;-63
2023/06/07 07:36:55;;;;;;;11.50;4.65;;;;;;;;;;5005808;28;20042;-63
2023/06/07 07:39:22;;;;;;;10.57;4.43;;;;;;;;;;5002778;28;20058;-63
2023/06/07 07:41:49;;;;;;;12.68;4.95;;;;;;;;;;5005867;28;20468;-63
2023/06/07 07:44:15;;;;;;;11.43;4.72;;;;;;;;;;5003483;28;20049;-64
2023/06/07 07:46:42;;;;;;;9.88;4.75;;;;;;;;;;5015802;28;20513;-64
2023/06/07 07:49:09;;;;;;;13.23;4.88;;;;;;;;;;5002452;28;20041;-63
2023/06/07 07:51:36;;;;;;;11.73;5.20;;;;;;;;;;5001203;28;20041;-62
2023/06/07 07:54:04;;;;;;;11.20;5.03;;;;;;;;;;5002757;28;20029;-62
2023/06/07 07:56:30;;;;;;;17.50;4.82;;;;;;;;;;4999966;28;20341;-62
2023/06/07 07:58:57;;;;;;;10.85;4.53;;;;;;;;;;5000486;28;20049;-63
2023/06/07 08:01:23;;;;;;;12.88;5.40;;;;;;;;;;5012285;28;20069;-62
2023/06/07 08:03:50;;;;;;;11.38;4.82;;;;;;;;;;4998852;28;20046;-62
2023/06/07 08:06:17;;;;;;;11.85;5.82;;;;;;;;;;5013353;28;20037;-62
2023/06/07 08:08:46;;;;;;;12.77;5.10;;;;;;;;;;4999551;28;20743;-62
2023/06/07 08:11:13;;;;;;;11.25;4.70;;;;;;;;;;4999919;28;20038;-62
2023/06/07 08:13:39;;;;;;;12.05;5.60;;;;;;;;;;5017200;28;20073;-61
2023/06/07 08:16:06;;;;;;;11.85;4.65;;;;;;;;;;5013694;28;20457;-62
2023/06/07 08:18:33;;;;;;;12.50;5.00;;;;;;;;;;5001431;28;20139;-66
2023/06/07 08:20:59;;;;;;;13.90;5.47;;;;;;;;;;5000954;28;20857;-62
2023/06/07 08:23:26;;;;;;;11.52;4.85;;;;;;;;;;5000683;28;20038;-63
2023/06/07 08:25:53;;;;;;;12.18;5.18;;;;;;;;;;5003409;28;20394;-64
2023/06/07 08:28:20;;;;;;;12.43;5.75;;;;;;;;;;5002436;28;20042;-65
2023/06/07 08:30:47;;;;;;;11.27;5.32;;;;;;;;;;5002989;28;20038;-62
2023/06/07 08:33:14;;;;;;;11.27;5.53;;;;;;;;;;5025071;28;20048;-63
2023/06/07 08:35:41;;;;;;;12.85;5.63;;;;;;;;;;5018757;28;20040;-64
2023/06/07 08:38:08;;;;;;;13.10;5.28;;;;;;;;;;5012601;28;20046;-61
2023/06/07 08:40:39;;;;;;;12.07;5.15;;;;;;;;;;5015488;28;20422;-62
2023/06/07 08:43:05;;;;;;;11.75;5.55;;;;;;;;;;5005022;28;21107;-61
2023/06/07 08:45:32;;;;;;;12.75;5.30;;;;;;;;;;5002245;28;20038;-62
2023/06/07 08:48:01;;;;;;;9.43;4.93;;;;;;;;;;5004964;28;20047;-63
2023/06/07 08:50:28;;;;;;;12.98;5.65;;;;;;;;;;5013871;28;20053;-61
2023/06/07 08:52:55;;;;;;;13.20;5.40;;;;;;;;;;5002887;28;20034;-63
2023/06/07 08:55:22;;;;;;;14.20;5.38;;;;;;;;;;5018209;28;20041;-66
2023/06/07 08:57:52;;;;;;;17.77;6.03;;;;;;;;;;5002417;28;21540;-64
2023/06/07 09:00:28;;;;;;;12.25;5.75;;;;;;;;;;5002831;28;20049;-62
2023/06/07 09:02:55;;;;;;;10.32;5.38;;;;;;;;;;5002823;28;20029;-64
2023/06/07 09:05:22;;;;;;;11.10;5.70;;;;;;;;;;5003095;28;20136;-62
2023/06/07 09:07:49;;;;;;;14.70;5.60;;;;;;;;;;5003192;28;20038;-62
2023/06/07 09:10:19;;;;;;;21.08;5.70;;;;;;;;;;5003779;28;20080;-63
2023/06/07 09:12:46;;;;;;;13.73;5.40;;;;;;;;;;5005239;28;20061;-63
2023/06/07 09:15:19;;;;;;;16.95;5.47;;;;;;;;;;5002061;28;20129;-64
2023/06/07 09:18:05;;;;;;;14.18;6.03;;;;;;;;;;4977240;28;20835;-62
2023/06/07 09:20:33;;;;;;;14.95;5.53;;;;;;;;;;4964287;28;20046;-62
2023/06/07 09:23:00;;;;;;;13.38;5.43;;;;;;;;;;4961849;28;20076;-63
2023/06/07 09:25:27;;;;;;;16.60;5.85;;;;;;;;;;4978127;28;20084;-62
2023/06/07 09:27:55;;;;;;;18.02;6.85;;;;;;;;;;4977684;28;20691;-62
2023/06/07 09:30:22;;;;;;;11.65;5.32;;;;;;;;;;4977273;28;20054;-63
2023/06/07 09:32:48;;;;;;;12.82;5.63;;;;;;;;;;4979923;28;20056;-65
2023/06/07 09:35:35;;;;;;;11.93;5.63;;;;;;;;;;4979152;28;20052;-63
2023/06/07 09:38:04;;;;;;;18.65;5.75;;;;;;;;;;4982986;28;20507;-62
2023/06/07 09:40:31;;;;;;;15.40;5.53;;;;;;;;;;4989329;28;20049;-64
2023/06/07 09:43:00;;;;;;;13.48;5.60;;;;;;;;;;4992843;28;20045;-64
2023/06/07 09:45:27;;;;;;;12.30;5.53;;;;;;;;;;4986742;28;20080;-64
2023/06/07 09:48:04;;;;;;;11.82;5.90;;;;;;;;;;4980899;28;20592;-63
2023/06/07 09:50:31;;;;;;;13.68;5.57;;;;;;;;;;4978270;28;20467;-62
2023/06/07 09:52:58;;;;;;;15.88;5.90;;;;;;;;;;4966398;28;20034;-65
2023/06/07 09:55:27;;;;;;;12.98;5.88;;;;;;;;;;4970904;28;20127;-63
2023/06/07 09:57:53;;;;;;;10.52;5.65;;;;;;;;;;4987605;28;20054;-63
2023/06/07 10:00:20;;;;;;;15.35;5.50;;;;;;;;;;4986138;28;20049;-66
2023/06/07 10:02:49;;;;;;;13.35;5.63;;;;;;;;;;4979327;28;20041;-65
2023/06/07 10:05:16;;;;;;;13.40;5.70;;;;;;;;;;4992666;28;20520;-65
2023/06/07 10:07:43;;;;;;;14.77;6.45;;;;;;;;;;4995667;28;20057;-65
2023/06/07 10:10:11;;;;;;;12.02;6.03;;;;;;;;;;4988044;28;20046;-64
2023/06/07 10:12:41;;;;;;;11.55;5.75;;;;;;;;;;4988920;28;20045;-63
2023/06/07 10:15:11;;;;;;;13.73;6.05;;;;;;;;;;4986385;28;20049;-63
2023/06/07 10:17:57;;;;;;;14.15;6.20;;;;;;;;;;4983520;28;20038;-65
2023/06/07 10:20:35;;;;;;;14.05;6.53;;;;;;;;;;4982658;28;20194;-63
2023/06/07 10:23:06;;;;;;;12.57;6.45;;;;;;;;;;4984560;28;20061;-65
2023/06/07 10:25:42;;;;;;;13.32;6.05;;;;;;;;;;4985366;28;20166;-64
2023/06/07 10:28:09;;;;;;;15.68;5.63;;;;;;;;;;4985026;28;20034;-65
2023/06/07 10:30:37;;;;;;;12.77;5.95;;;;;;;;;;4994097;28;20049;-64
2023/06/07 10:33:04;;;;;;;15.00;5.97;;;;;;;;;;4994247;28;20134;-63
2023/06/07 10:35:32;;;;;;;13.77;6.05;;;;;;;;;;4995054;28;20049;-65
2023/06/07 10:37:59;;;;;;;16.48;6.93;;;;;;;;;;4982399;28;20506;-65
2023/06/07 10:40:26;;;;;;;16.48;6.55;;;;;;;;;;4981928;28;20062;-64
2023/06/07 10:42:55;;;;;;;15.75;6.53;;;;;;;;;;4983381;28;20551;-63
2023/06/07 10:45:22;;;;;;;18.95;7.05;;;;;;;;;;4993859;28;20042;-68
2023/06/07 10:47:48;;;;;;;17.73;6.38;;;;;;;;;;4981884;28;20171;-63
2023/06/07 10:50:27;;;;;;;12.82;6.20;;;;;;;;;;4992146;28;20377;-63
2023/06/07 10:52:55;;;;;;;13.82;5.68;;;;;;;;;;4982541;28;20038;-63
2023/06/07 10:55:31;;;;;;;15.52;6.35;;;;;;;;;;4992827;28;20038;-64
2023/06/07 10:57:58;;;;;;;12.73;6.38;;;;;;;;;;4979585;28;20062;-63
2023/06/07 11:00:29;;;;;;;14.73;6.38;;;;;;;;;;4979620;28;20057;-64
2023/06/07 11:03:16;;;;;;;18.23;6.63;;;;;;;;;;4982128;28;20554;-64
2023/06/07 11:05:54;;;;;;;20.25;6.85;;;;;;;;;;4982729;28;20042;-62
2023/06/07 11:08:31;;;;;;;15.75;6.40;;;;;;;;;;4982875;28;20048;-62
2023/06/07 11:11:00;;;;;;;18.17;6.80;;;;;;;;;;4983605;28;20181;-61
2023/06/07 11:13:27;;;;;;;19.00;6.85;;;;;;;;;;4993022;28;20037;-60
2023/06/07 11:16:14;;;;;;;12.48;6.55;;;;;;;;;;4995462;28;20048;-62
2023/06/07 11:18:57;;;;;;;14.18;6.95;;;;;;;;;;4982875;28;20055;-60
2023/06/07 11:21:30;;;;;;;22.83;7.15;;;;;;;;;;4983052;28;20069;-61
2023/06/07 11:24:12;;;;;;;20.67;6.63;;;;;;;;;;4984766;28;20056;-63
2023/06/07 11:26:39;;;;;;;19.48;7.70;;;;;;;;;;4984835;28;20050;-60
2023/06/07 11:29:08;;;;;;;16.90;6.80;;;;;;;;;;4999880;28;20065;-61
2023/06/07 11:31:35;;;;;;;16.13;6.40;;;;;;;;;;4996115;28;20046;-62
2023/06/07 11:34:01;;;;;;;14.25;7.25;;;;;;;;;;4981411;28;20113;-62
2023/06/07 11:36:31;;;;;;;13.45;6.20;;;;;;;;;;4983201;28;20038;-61
2023/06/07 11:39:03;;;;;;;17.35;6.90;;;;;;;;;;4983607;28;20101;-62
2023/06/07 11:41:31;;;;;;;12.80;7.43;;;;;;;;;;4985110;28;20056;-61
2023/06/07 11:44:01;;;;;;;14.90;6.93;;;;;;;;;;4982733;28;20558;-61
2023/06/07 11:46:37;;;;;;;15.18;7.38;;;;;;;;;;4983504;28;20045;-62
2023/06/07 11:49:09;;;;;;;17.15;7.18;;;;;;;;;;4982000;28;20052;-63
2023/06/07 11:51:57;;;;;;;15.38;6.65;;;;;;;;;;4980690;28;20784;-64
2023/06/07 11:54:27;;;;;;;17.33;7.28;;;;;;;;;;4982091;28;20045;-64
2023/06/07 11:56:53;;;;;;;15.20;6.63;;;;;;;;;;4979826;28;20093;-61
2023/06/07 11:59:22;;;;;;;14.07;7.30;;;;;;;;;;4978744;28;20090;-61
2023/06/07 12:01:52;;;;;;;16.35;6.72;;;;;;;;;;4981196;28;20053;-63
2023/06/07 12:04:19;;;;;;;19.40;6.85;;;;;;;;;;4979791;28;22409;-61
2023/06/07 12:06:48;;;;;;;18.10;6.82;;;;;;;;;;4961713;28;20271;-61
2023/06/07 12:09:15;;;;;;;22.15;7.75;;;;;;;;;;4980890;28;20034;-63
2023/06/07 12:11:42;;;;;;;19.27;6.93;;;;;;;;;;4980181;28;20057;-61
2023/06/07 12:14:09;;;;;;;19.05;7.20;;;;;;;;;;4982960;28;20046;-60
2023/06/07 12:16:38;;;;;;;18.63;7.32;;;;;;;;;;4983401;28;20034;-60
2023/06/07 12:19:05;;;;;;;16.98;7.15;;;;;;;;;;4982745;28;20058;-59
2023/06/07 12:21:32;;;;;;;16.33;7.05;;;;;;;;;;4981704;28;20165;-62
2023/06/07 12:24:01;;;;;;;15.27;7.60;;;;;;;;;;4986431;28;21317;-59
2023/06/07 12:26:28;;;;;;;24.63;7.40;;;;;;;;;;4996951;28;20392;-61
2023/06/07 12:28:55;;;;;;;16.67;7.63;;;;;;;;;;4986839;28;20531;-63
2023/06/07 12:31:30;;;;;;;18.50;7.32;;;;;;;;;;4984841;28;20033;-62
2023/06/07 12:33:58;;;;;;;19.63;7.88;;;;;;;;;;4984994;28;20064;-61
2023/06/07 12:36:28;;;;;;;19.77;7.57;;;;;;;;;;4988367;28;20057;-63
2023/06/07 12:38:55;;;;;;;13.45;7.38;;;;;;;;;;4986376;28;20098;-65
2023/06/07 12:41:28;;;;;;;20.45;7.68;;;;;;;;;;4997540;28;20048;-64
2023/06/07 12:43:56;;;;;;;17.80;6.85;;;;;;;;;;4998084;28;20049;-64
2023/06/07 12:46:24;;;;;;;25.30;7.72;;;;;;;;;;4986563;28;20050;-65
2023/06/07 12:48:50;;;;;;;22.10;7.80;;;;;;;;;;4988194;28;20068;-64
2023/06/07 12:51:17;;;;;;;20.92;7.45;;;;;;;;;;4990115;28;20041;-66
2023/06/07 12:53:44;;;;;;;17.40;7.85;;;;;;;;;;5005464;28;20070;-64
2023/06/07 12:56:11;;;;;;;23.33;7.78;;;;;;;;;;5013370;28;20119;-64
2023/06/07 12:58:37;;;;;;;25.20;8.10;;;;;;;;;;5025689;28;20062;-63
2023/06/07 13:01:04;;;;;;;18.85;7.38;;;;;;;;;;5021054;28;20037;-64
2023/06/07 13:03:31;;;;;;;25.33;8.20;;;;;;;;;;5011949;28;20048;-64
2023/06/07 13:05:57;;;;;;;19.83;7.18;;;;;;;;;;5008410;28;20038;-64
2023/06/07 13:08:24;;;;;;;14.93;7.28;;;;;;;;;;5011141;28;20037;-63
2023/06/07 13:10:52;;;;;;;19.33;7.10;;;;;;;;;;5008500;28;20045;-63
2023/06/07 13:13:19;;;;;;;18.13;7.45;;;;;;;;;;5009626;28;20076;-63
2023/06/07 13:15:45;;;;;;;21.52;8.10;;;;;;;;;;5008323;28;20066;-62
2023/06/07 13:18:12;;;;;;;20.95;7.13;;;;;;;;;;5010514;28;20042;-64
2023/06/07 13:20:39;;;;;;;17.20;7.13;;;;;;;;;;4985722;28;20068;-65
2023/06/07 13:23:05;;;;;;;21.13;7.35;;;;;;;;;;5002028;28;20052;-63
2023/06/07 13:25:32;;;;;;;19.33;7.20;;;;;;;;;;4997675;28;20809;-63
2023/06/07 13:27:59;;;;;;;19.13;8.27;;;;;;;;;;4984702;28;20515;-63
2023/06/07 13:30:26;;;;;;;22.52;7.25;;;;;;;;;;4986781;28;20053;-63
2023/06/07 13:32:52;;;;;;;29.60;8.90;;;;;;;;;;4990046;28;20057;-63
2023/06/07 13:35:20;;;;;;;16.33;6.57;;;;;;;;;;4987860;28;20053;-59
2023/06/07 13:37:46;;;;;;;20.63;7.70;;;;;;;;;;4983827;28;20566;-62
2023/06/07 13:40:13;;;;;;;17.23;7.38;;;;;;;;;;4980712;28;20054;-62
2023/06/07 13:42:40;;;;;;;24.48;8.93;;;;;;;;;;4986047;28;20041;-63
2023/06/07 13:45:08;;;;;;;24.77;8.25;;;;;;;;;;4990368;28;20124;-63
2023/06/07 13:47:35;;;;;;;21.80;8.60;;;;;;;;;;4990518;28;20061;-64
2023/06/07 13:50:01;;;;;;;21.50;8.43;;;;;;;;;;5002728;28;20038;-65
2023/06/07 13:52:28;;;;;;;21.40;6.95;;;;;;;;;;4993862;28;20068;-64
2023/06/07 13:54:56;;;;;;;16.85;7.45;;;;;;;;;;4984720;28;20084;-63
2023/06/07 13:57:23;;;;;;;23.65;8.35;;;;;;;;;;4982444;28;20120;-65
2023/06/07 13:59:50;;;;;;;20.67;6.88;;;;;;;;;;4984595;28;20057;-64
2023/06/07 14:02:17;;;;;;;20.00;7.47;;;;;;;;;;4984886;28;20048;-63
2023/06/07 14:04:46;;;;;;;20.85;7.55;;;;;;;;;;4982947;28;20046;-64
2023/06/07 14:07:13;;;;;;;16.15;7.32;;;;;;;;;;4984473;28;20506;-63
2023/06/07 14:09:39;;;;;;;16.88;6.88;;;;;;;;;;4983681;28;20396;-63
2023/06/07 14:12:08;;;;;;;16.17;6.57;;;;;;;;;;4985249;28;20571;-62
2023/06/07 14:14:34;;;;;;;19.63;6.90;;;;;;;;;;4984874;28;20044;-63
2023/06/07 14:17:01;;;;;;;23.02;6.93;;;;;;;;;;4986820;28;20041;-64
2023/06/07 14:19:28;;;;;;;15.15;6.65;;;;;;;;;;4985716;28;20046;-62
2023/06/07 14:21:54;;;;;;;16.23;6.78;;;;;;;;;;4985170;28;20511;-63
2023/06/07 14:24:21;;;;;;;16.00;6.60;;;;;;;;;;4999473;28;20980;-65
2023/06/07 14:26:48;;;;;;;24.38;7.03;;;;;;;;;;4987150;28;20077;-62
2023/06/07 14:29:15;;;;;;;21.63;7.05;;;;;;;;;;4985851;28;20145;-64
2023/06/07 14:31:41;;;;;;;18.17;6.10;;;;;;;;;;4983966;28;20041;-66
2023/06/07 14:34:08;;;;;;;19.58;7.70;;;;;;;;;;4984494;28;20039;-63
2023/06/07 14:36:35;;;;;;;16.27;6.63;;;;;;;;;;4985808;28;20140;-63
2023/06/07 14:39:01;;;;;;;24.05;7.03;;;;;;;;;;4981746;28;20053;-64
2023/06/07 14:41:28;;;;;;;17.63;7.20;;;;;;;;;;4982218;28;20038;-62